• Join FlightAware (Why Join?)
  • Login
  • US Flag 
09:12AM EDT


 

Airport Tracker/Info


-or-


 

Live Flight TrackerFlight Track Log ✈ CTL17 ✈ 01-May-2013 ✈ KPTK - KMBS

Flight Track Log - Related Links

Times and Time Zones

All times are in EDT time to prevent confusion due to time zone crossing. See the CTL17 flight status page for this flight to view local times or setup timezone preferences in your user account.

Time Position Orientation Groundspeed Altitude Reporting Facility
EDT Latitude Longitude Course Direction KTS MPH feet Rate Location/Type
03:53PM 42.6681 -83.3758 75° East 137 158 2,100  Level Cleveland Center
03:53PM 42.6753 -83.3394 75° East 138 159 2,500 540 Climbing Cleveland Center
03:55PM 42.7060 -83.3715 323° Northwest  Level FlightAware Approximate
04:02PM 42.9506 -83.4222 321° Northwest  Level FlightAware Approximate
04:03PM 42.9780 -83.4524 321° Northwest  Level FlightAware Approximate
04:04PM 43.0053 -83.4826 321° Northwest  Level FlightAware Approximate
04:05PM 43.0327 -83.5128 321° Northwest  Level FlightAware Approximate
04:06PM 43.0601 -83.5430 321° Northwest  Level FlightAware Approximate
04:07PM 43.0875 -83.5733 321° Northwest  Level FlightAware Approximate
04:08PM 43.1148 -83.6036 321° Northwest  Level FlightAware Approximate
04:09PM 43.1422 -83.6339 321° Northwest  Level FlightAware Approximate
04:10PM 43.1695 -83.6642 321° Northwest  Level FlightAware Approximate
04:11PM 43.1968 -83.6946 321° Northwest  Level FlightAware Approximate
04:12PM 43.2239 -83.7255 318° Northwest  Level FlightAware Approximate
04:13PM 43.2502 -83.7575 318° Northwest  Level FlightAware Approximate
04:14PM 43.2765 -83.7896 318° Northwest  Level FlightAware Approximate
04:15PM 43.3028 -83.8217 318° Northwest  Level FlightAware Approximate
04:16PM 43.3290 -83.8539 318° Northwest  Level FlightAware Approximate
04:17PM 43.3553 -83.8861 318° Northwest  Level FlightAware Approximate
04:18PM 43.3828 -83.9161 324° Northwest  Level FlightAware Approximate
04:19PM 43.4113 -83.9446 324° Northwest  Level FlightAware Approximate
04:20PM 43.4398 -83.9730 324° Northwest  Level FlightAware Approximate
04:21PM 43.4683 -84.0015 324° Northwest  Level FlightAware Approximate
04:22PM 43.4967 -84.0300 324° Northwest  Level FlightAware Approximate